createdAt,value
2022-10-22T00:00:14.012Z,7.97
2022-10-22T00:02:42.090Z,8.20
2022-10-22T00:05:10.194Z,6.05
2022-10-22T00:10:14.721Z,4.90
2022-10-22T00:12:41.841Z,5.93
2022-10-22T00:15:22.821Z,6.65
2022-10-22T00:17:50.483Z,8.90
2022-10-22T00:20:20.093Z,4.72
2022-10-22T00:25:26.577Z,6.35
2022-10-22T00:27:54.063Z,7.50
2022-10-22T00:30:25.173Z,5.78
2022-10-22T00:32:57.913Z,5.03
2022-10-22T00:35:26.029Z,6.13
2022-10-22T00:37:59.661Z,6.03
2022-10-22T00:40:34.795Z,5.82
2022-10-22T00:43:06.030Z,8.65
2022-10-22T00:45:33.476Z,8.02
2022-10-22T00:48:06.375Z,6.75
2022-10-22T00:50:47.495Z,7.25
2022-10-22T00:53:26.665Z,4.13
2022-10-22T00:55:55.517Z,4.28
2022-10-22T00:58:28.549Z,6.05
2022-10-22T01:00:57.349Z,8.75
2022-10-22T01:03:30.039Z,5.53
2022-10-22T01:06:04.018Z,5.60
2022-10-22T01:08:40.254Z,4.95
2022-10-22T01:11:24.101Z,4.35
2022-10-22T01:14:08.269Z,4.97
2022-10-22T01:16:57.185Z,5.22
2022-10-22T01:19:55.296Z,4.30
2022-10-22T01:22:44.651Z,4.00
2022-10-22T01:25:46.339Z,7.38
2022-10-22T01:28:39.215Z,5.57
2022-10-22T01:31:08.323Z,5.63
2022-10-22T01:33:40.727Z,8.43
2022-10-22T01:36:08.924Z,5.88
2022-10-22T01:38:37.767Z,7.30
2022-10-22T01:41:06.447Z,11.15
2022-10-22T01:43:33.977Z,8.93
2022-10-22T01:46:08.490Z,11.30
2022-10-22T01:49:14.560Z,13.88
2022-10-22T01:52:19.821Z,16.10
2022-10-22T01:55:15.418Z,14.25
2022-10-22T01:57:48.366Z,11.32
2022-10-22T02:00:22.609Z,12.85
2022-10-22T02:02:58.459Z,7.88
2022-10-22T02:05:59.863Z,7.47
2022-10-22T02:08:33.511Z,6.47
2022-10-22T02:11:03.585Z,5.68
2022-10-22T02:13:42.636Z,5.38
2022-10-22T02:16:18.609Z,7.65
2022-10-22T02:18:47.844Z,5.72
2022-10-22T02:21:18.212Z,6.43
2022-10-22T02:23:52.282Z,10.35
2022-10-22T02:26:33.369Z,5.85
2022-10-22T02:29:20.810Z,8.13
2022-10-22T02:31:54.177Z,5.70
2022-10-22T02:34:24.669Z,5.30
2022-10-22T02:36:53.320Z,4.22
2022-10-22T02:39:22.168Z,5.40
2022-10-22T02:41:56.777Z,3.97
2022-10-22T02:44:24.742Z,6.00
2022-10-22T02:46:56.477Z,4.47
2022-10-22T02:49:28.763Z,8.90
2022-10-22T02:54:23.586Z,5.63
2022-10-22T02:56:56.556Z,4.82
2022-10-22T02:59:25.513Z,6.10
2022-10-22T03:01:57.682Z,5.75
2022-10-22T03:04:25.046Z,5.93
2022-10-22T03:06:52.580Z,3.85
2022-10-22T03:09:24.970Z,3.80
2022-10-22T03:11:52.837Z,5.82
2022-10-22T03:14:20.152Z,8.80
2022-10-22T03:16:47.810Z,4.82
2022-10-22T03:19:15.677Z,6.47
2022-10-22T03:21:50.807Z,5.20
2022-10-22T03:27:12.912Z,4.18
2022-10-22T03:29:47.692Z,6.20
2022-10-22T03:32:15.344Z,4.85
2022-10-22T03:34:45.778Z,4.55
2022-10-22T03:37:17.328Z,7.47
2022-10-22T03:39:51.083Z,4.35
2022-10-22T03:42:22.271Z,6.93
2022-10-22T03:44:52.608Z,6.72
2022-10-22T03:47:20.180Z,5.15
2022-10-22T03:50:10.479Z,4.78
2022-10-22T03:52:39.568Z,6.28
2022-10-22T03:55:16.771Z,8.10
2022-10-22T03:57:44.279Z,9.60
2022-10-22T04:00:12.031Z,7.75
2022-10-22T04:02:42.825Z,6.10
2022-10-22T04:05:10.335Z,4.97
2022-10-22T04:07:38.018Z,5.88
2022-10-22T04:10:05.909Z,5.97
2022-10-22T04:12:34.000Z,4.80
2022-10-22T04:15:01.335Z,10.13
2022-10-22T04:17:38.407Z,6.82
2022-10-22T04:20:07.047Z,7.70
2022-10-22T04:22:37.818Z,6.40
2022-10-22T04:25:06.635Z,6.65
2022-10-22T04:27:37.300Z,6.45
2022-10-22T04:30:06.808Z,7.00
2022-10-22T04:32:34.575Z,4.60
2022-10-22T04:35:02.108Z,6.60
2022-10-22T04:37:30.535Z,6.32
2022-10-22T04:40:00.119Z,6.07
2022-10-22T04:42:28.716Z,3.95
2022-10-22T04:44:56.066Z,7.43
2022-10-22T04:47:24.487Z,6.10
2022-10-22T04:49:53.971Z,6.13
2022-10-22T04:52:21.501Z,5.78
2022-10-22T04:54:50.401Z,5.35
2022-10-22T04:57:18.111Z,4.75
2022-10-22T04:59:45.607Z,5.57
2022-10-22T05:02:12.817Z,8.25
2022-10-22T05:04:52.613Z,4.50
2022-10-22T05:07:20.234Z,10.50
2022-10-22T05:09:47.483Z,9.68
2022-10-22T05:12:14.610Z,5.95
2022-10-22T05:14:44.936Z,5.18
2022-10-22T05:17:25.374Z,6.13
2022-10-22T05:20:06.017Z,7.38
2022-10-22T05:22:35.511Z,6.93
2022-10-22T05:25:03.087Z,6.72
2022-10-22T05:27:33.434Z,8.45
2022-10-22T05:30:05.251Z,6.65
2022-10-22T05:32:35.080Z,8.85
2022-10-22T05:35:02.285Z,8.43
2022-10-22T05:37:39.048Z,9.45
2022-10-22T05:40:26.401Z,9.63
2022-10-22T05:43:00.778Z,10.35
2022-10-22T05:45:44.383Z,13.77
2022-10-22T05:48:14.430Z,12.90
2022-10-22T05:50:54.081Z,9.18
2022-10-22T05:53:22.770Z,10.68
2022-10-22T05:55:54.092Z,9.65
2022-10-22T05:59:00.292Z,10.23
2022-10-22T06:01:43.192Z,10.10
2022-10-22T06:04:30.322Z,12.93
2022-10-22T06:10:00.722Z,11.13
2022-10-22T06:12:41.954Z,13.18
2022-10-22T06:15:43.900Z,12.38
2022-10-22T06:18:21.262Z,12.10
2022-10-22T06:20:55.034Z,11.70
2022-10-22T06:23:47.439Z,10.43
2022-10-22T06:26:30.763Z,5.95
2022-10-22T06:29:30.017Z,6.95
2022-10-22T06:36:08.281Z,9.38
2022-10-22T06:39:11.057Z,8.75
2022-10-22T06:44:51.696Z,7.55
2022-10-22T06:47:31.676Z,7.05
2022-10-22T06:53:35.307Z,7.68
2022-10-22T06:56:13.898Z,7.45
2022-10-22T06:58:49.038Z,9.05
2022-10-22T07:01:30.399Z,5.20
2022-10-22T07:04:06.423Z,7.68
2022-10-22T07:06:41.433Z,5.28
2022-10-22T07:09:42.805Z,6.57
2022-10-22T07:19:48.440Z,8.85
2022-10-22T07:22:39.085Z,5.53
2022-10-22T07:25:59.109Z,9.05
2022-10-22T07:39:00.008Z,7.65
2022-10-22T07:41:45.430Z,5.65
2022-10-22T07:57:53.766Z,5.65
2022-10-22T08:01:55.940Z,4.57
2022-10-22T08:04:42.459Z,3.65
2022-10-22T09:18:52.341Z,5.35
2022-10-22T09:35:48.484Z,7.63
2022-10-22T09:42:24.754Z,7.82
2022-10-22T09:49:32.267Z,8.43
2022-10-22T09:53:43.549Z,5.78
2022-10-22T10:00:40.725Z,5.60
2022-10-22T10:04:28.641Z,4.80
2022-10-22T10:10:10.302Z,6.55
2022-10-22T10:12:48.200Z,5.43
2022-10-22T10:15:48.902Z,7.07
2022-10-22T10:18:30.126Z,6.10
2022-10-22T10:21:33.032Z,8.05
2022-10-22T10:24:32.872Z,5.75
2022-10-22T10:27:14.744Z,8.80
2022-10-22T10:30:01.585Z,5.28
2022-10-22T10:33:24.077Z,7.70
2022-10-22T10:36:07.302Z,7.60
2022-10-22T10:38:58.451Z,7.25
2022-10-22T10:41:33.408Z,5.72
2022-10-22T10:44:18.204Z,6.70
2022-10-22T10:47:44.599Z,11.25
2022-10-22T10:51:00.443Z,8.98
2022-10-22T10:54:03.433Z,5.78
2022-10-22T10:56:57.523Z,6.35
2022-10-22T10:59:55.499Z,9.40
2022-10-22T11:03:24.352Z,5.70
2022-10-22T11:06:21.677Z,7.78
2022-10-22T11:09:23.554Z,7.47
2022-10-22T11:12:19.806Z,7.28
2022-10-22T11:15:35.216Z,10.32
2022-10-22T11:18:39.460Z,6.93
2022-10-22T11:21:22.880Z,5.65
2022-10-22T11:27:16.862Z,12.90
2022-10-22T11:29:59.340Z,7.38
2022-10-22T11:32:43.074Z,6.28
2022-10-22T11:35:27.429Z,6.80
2022-10-22T11:39:27.906Z,10.50
2022-10-22T11:41:32.979Z,8.48
2022-10-22T11:44:59.280Z,7.63
2022-10-22T11:47:35.750Z,6.53
2022-10-22T11:50:50.856Z,8.20
2022-10-22T11:53:55.758Z,8.52
2022-10-22T11:56:38.843Z,9.05
2022-10-22T11:59:33.717Z,6.55
2022-10-22T12:04:43.529Z,7.50
2022-10-22T12:07:31.780Z,7.53
2022-10-22T12:09:59.458Z,4.90
2022-10-22T12:12:29.793Z,6.85
2022-10-22T12:15:01.329Z,8.52
2022-10-22T12:20:21.116Z,10.52
2022-10-22T12:22:57.569Z,10.38
2022-10-22T12:25:35.496Z,10.30
2022-10-22T12:28:05.719Z,9.80
2022-10-22T12:30:37.468Z,7.35
2022-10-22T12:33:21.578Z,5.18
2022-10-22T12:35:58.071Z,8.75
2022-10-22T12:42:08.830Z,7.78
2022-10-22T12:48:21.370Z,9.15
2022-10-22T12:51:17.089Z,6.38
2022-10-22T12:54:20.447Z,7.60
2022-10-22T12:59:35.614Z,11.52
2022-10-22T13:08:22.049Z,7.57
2022-10-22T13:10:57.914Z,10.35
2022-10-22T13:13:45.961Z,9.18
2022-10-22T13:19:04.675Z,15.85
2022-10-22T13:21:39.486Z,14.48
2022-10-22T13:24:39.154Z,13.32
2022-10-22T13:27:12.585Z,11.25
2022-10-22T13:29:44.524Z,12.05
2022-10-22T13:32:35.289Z,10.20
2022-10-22T13:35:32.520Z,9.57
2022-10-22T13:38:23.439Z,7.38
2022-10-22T13:41:00.887Z,9.80
2022-10-22T13:43:29.046Z,11.30
2022-10-22T13:46:05.589Z,8.85
2022-10-22T13:48:33.177Z,11.32
2022-10-22T13:51:14.970Z,10.00
2022-10-22T13:53:51.621Z,11.98
2022-10-22T13:56:51.955Z,13.55
2022-10-22T13:59:25.578Z,15.18
2022-10-22T14:02:00.394Z,14.50
2022-10-22T14:04:37.144Z,17.20
2022-10-22T14:07:05.445Z,19.40
2022-10-22T14:09:37.403Z,19.38
2022-10-22T14:12:15.356Z,14.82
2022-10-22T14:17:25.345Z,12.55
2022-10-22T14:19:56.036Z,9.05
2022-10-22T14:22:29.032Z,8.57
2022-10-22T14:24:57.437Z,13.00
2022-10-22T14:27:31.422Z,9.48
2022-10-22T14:30:02.533Z,10.73
2022-10-22T14:35:00.317Z,8.90
2022-10-22T14:37:30.630Z,10.45
2022-10-22T14:40:02.952Z,8.98
2022-10-22T14:42:31.608Z,9.23
2022-10-22T14:45:01.091Z,5.57
2022-10-22T14:47:38.883Z,10.52
2022-10-22T14:50:13.417Z,8.05
2022-10-22T14:52:48.325Z,9.02
2022-10-22T14:55:20.532Z,7.65
2022-10-22T14:57:48.085Z,8.80
2022-10-22T15:00:18.001Z,17.00
2022-10-22T15:02:47.013Z,14.25
2022-10-22T15:05:18.050Z,17.25
2022-10-22T15:07:49.261Z,14.50
2022-10-22T15:10:16.898Z,18.17
2022-10-22T15:12:50.294Z,11.88
2022-10-22T15:15:25.582Z,15.68
2022-10-22T15:17:57.855Z,19.17
2022-10-22T15:20:36.073Z,20.52
2022-10-22T15:23:06.575Z,16.17
2022-10-22T15:25:34.178Z,19.08
2022-10-22T15:28:09.343Z,14.90
2022-10-22T15:30:37.751Z,22.60
2022-10-22T15:33:06.053Z,22.08
2022-10-22T15:35:43.471Z,20.92
2022-10-22T15:38:14.851Z,31.25
2022-10-22T15:40:41.906Z,31.35
2022-10-22T15:43:09.288Z,25.08
2022-10-22T15:45:38.367Z,27.27
2022-10-22T15:48:15.360Z,26.80
2022-10-22T15:50:59.892Z,23.70
2022-10-22T15:53:32.385Z,24.55
2022-10-22T15:56:10.104Z,35.08
2022-10-22T15:58:40.544Z,31.65
2022-10-22T16:01:13.770Z,35.53
2022-10-22T16:03:43.553Z,43.63
2022-10-22T16:06:11.187Z,42.30
2022-10-22T16:08:39.797Z,47.35
2022-10-22T16:11:07.305Z,40.92
2022-10-22T16:13:37.264Z,33.03
2022-10-22T16:16:13.847Z,45.40
2022-10-22T16:18:41.673Z,36.78
2022-10-22T16:21:14.767Z,29.50
2022-10-22T16:23:44.630Z,29.80
2022-10-22T16:26:16.110Z,26.90
2022-10-22T16:28:44.010Z,33.10
2022-10-22T16:31:16.434Z,31.75
2022-10-22T16:33:50.002Z,38.45
2022-10-22T16:36:19.934Z,30.42
2022-10-22T16:38:48.541Z,28.27
2022-10-22T16:41:19.671Z,31.88
2022-10-22T16:43:54.680Z,31.15
2022-10-22T16:46:25.359Z,28.20
2022-10-22T16:48:53.590Z,26.55
2022-10-22T16:51:23.809Z,30.77
2022-10-22T16:53:55.694Z,29.38
2022-10-22T16:59:03.165Z,29.58
2022-10-22T17:01:36.747Z,30.95
2022-10-22T17:04:07.141Z,33.10
2022-10-22T17:06:34.660Z,26.55
2022-10-22T17:09:05.556Z,34.45
2022-10-22T17:11:36.404Z,32.30
2022-10-22T17:14:10.626Z,26.75
2022-10-22T17:16:38.022Z,18.77
2022-10-22T17:19:05.415Z,30.27
2022-10-22T17:21:34.116Z,35.47
2022-10-22T17:24:04.785Z,32.35
2022-10-22T17:26:34.797Z,33.33
2022-10-22T17:29:02.060Z,32.95
2022-10-22T17:31:39.284Z,33.85
2022-10-22T17:34:15.109Z,32.90
2022-10-22T17:36:46.101Z,25.08
2022-10-22T17:39:17.899Z,39.83
2022-10-22T17:44:18.158Z,29.67
2022-10-22T17:46:49.798Z,29.58
2022-10-22T17:49:19.923Z,33.13
2022-10-22T17:51:50.216Z,38.55
2022-10-22T17:54:20.632Z,34.25
2022-10-22T17:56:48.905Z,28.42
2022-10-22T17:59:20.127Z,35.83
2022-10-22T18:01:50.960Z,28.25
2022-10-22T18:04:20.398Z,22.52
2022-10-22T18:06:49.314Z,27.98
2022-10-22T18:09:22.708Z,43.22
2022-10-22T18:11:58.711Z,43.75
2022-10-22T18:14:26.345Z,45.47
2022-10-22T18:16:56.470Z,31.30
2022-10-22T18:19:24.748Z,54.55
2022-10-22T18:21:52.314Z,49.95
2022-10-22T18:24:24.215Z,42.83
2022-10-22T18:26:53.386Z,33.72
2022-10-22T18:29:21.147Z,29.85
2022-10-22T18:31:49.370Z,22.98
2022-10-22T18:34:20.225Z,27.13
2022-10-22T18:36:50.435Z,32.08
2022-10-22T18:39:20.342Z,24.65
2022-10-22T18:41:50.960Z,21.27
2022-10-22T18:44:18.358Z,27.00
2022-10-22T18:46:49.646Z,25.73
2022-10-22T18:49:19.422Z,24.73
2022-10-22T18:51:52.690Z,28.20
2022-10-22T18:54:24.390Z,26.75
2022-10-22T18:56:53.343Z,30.05
2022-10-22T18:59:27.600Z,29.50
2022-10-22T19:01:57.802Z,31.65
2022-10-22T19:04:27.643Z,35.15
2022-10-22T19:07:00.940Z,24.10
2022-10-22T19:09:29.019Z,29.08
2022-10-22T19:12:01.321Z,35.05
2022-10-22T19:17:21.476Z,37.08
2022-10-22T19:19:52.089Z,35.60
2022-10-22T19:22:20.989Z,40.53
2022-10-22T19:24:54.610Z,41.10
2022-10-22T19:27:21.893Z,36.38
2022-10-22T19:29:59.486Z,39.28
2022-10-22T19:32:30.157Z,44.83
2022-10-22T19:35:00.876Z,39.95
2022-10-22T19:37:31.512Z,38.20
2022-10-22T19:39:58.879Z,36.58
2022-10-22T19:42:29.526Z,37.97
2022-10-22T19:45:00.077Z,32.97
2022-10-22T19:47:31.073Z,34.22
2022-10-22T19:50:21.187Z,26.00
2022-10-22T19:52:52.189Z,34.65
2022-10-22T19:55:22.338Z,33.72
2022-10-22T19:57:50.223Z,36.05
2022-10-22T20:00:19.300Z,25.23
2022-10-22T20:02:46.616Z,25.92
2022-10-22T20:05:13.952Z,30.35
2022-10-22T20:07:41.597Z,27.98
2022-10-22T20:10:12.122Z,27.42
2022-10-22T20:12:40.063Z,28.50
2022-10-22T20:15:09.450Z,27.33
2022-10-22T20:17:40.287Z,21.52
2022-10-22T20:20:14.078Z,27.60
2022-10-22T20:22:43.360Z,24.98
2022-10-22T20:25:14.139Z,28.55
2022-10-22T20:27:46.582Z,26.77
2022-10-22T20:32:49.972Z,20.98
2022-10-22T20:35:17.772Z,21.45
2022-10-22T20:37:45.058Z,24.75
2022-10-22T20:40:18.858Z,24.13
2022-10-22T20:42:53.656Z,25.80
2022-10-22T20:45:20.893Z,24.60
2022-10-22T20:47:52.008Z,23.15
2022-10-22T20:50:35.999Z,22.80
2022-10-22T20:53:03.417Z,22.77
2022-10-22T20:55:40.715Z,20.58
2022-10-22T20:58:07.938Z,18.80
2022-10-22T21:00:36.473Z,15.05
2022-10-22T21:03:09.600Z,18.48
2022-10-22T21:05:39.374Z,17.58
2022-10-22T21:08:06.671Z,23.48
2022-10-22T21:10:36.642Z,20.58
2022-10-22T21:13:04.400Z,24.17
2022-10-22T21:15:39.305Z,20.38
2022-10-22T21:18:06.813Z,18.83
2022-10-22T21:20:34.277Z,21.15
2022-10-22T21:23:02.486Z,19.27
2022-10-22T21:25:30.458Z,19.98
2022-10-22T21:27:58.244Z,23.23
2022-10-22T21:30:25.526Z,29.30
2022-10-22T21:33:04.954Z,18.50
2022-10-22T21:35:36.185Z,17.88
2022-10-22T21:38:05.229Z,16.00
2022-10-22T21:40:43.701Z,17.15
2022-10-22T21:43:11.024Z,23.00
2022-10-22T21:45:41.264Z,23.13
2022-10-22T21:48:13.631Z,20.77
2022-10-22T21:50:50.934Z,20.60
2022-10-22T21:53:18.319Z,22.90
2022-10-22T21:55:45.923Z,21.20
2022-10-22T21:58:13.210Z,17.45
2022-10-22T22:00:40.773Z,17.75
2022-10-22T22:03:08.136Z,22.27
2022-10-22T22:05:35.562Z,23.42
2022-10-22T22:08:02.845Z,27.33
2022-10-22T22:10:32.792Z,19.13
2022-10-22T22:13:09.382Z,21.90
2022-10-22T22:15:37.055Z,25.58
2022-10-22T22:18:04.653Z,15.65
2022-10-22T22:20:37.402Z,15.63
2022-10-22T22:23:10.882Z,13.20
2022-10-22T22:25:41.112Z,17.58
2022-10-22T22:28:16.626Z,18.95
2022-10-22T22:30:44.803Z,17.00
2022-10-22T22:33:13.123Z,15.77
2022-10-22T22:35:40.865Z,17.65
2022-10-22T22:38:15.547Z,16.98
2022-10-22T22:40:45.292Z,14.90
2022-10-22T22:43:12.483Z,16.17
2022-10-22T22:45:43.588Z,15.45
2022-10-22T22:48:11.189Z,17.35
2022-10-22T22:50:39.097Z,16.38
2022-10-22T22:53:24.558Z,21.27
2022-10-22T22:55:52.294Z,16.77
2022-10-22T22:58:19.558Z,16.75
2022-10-22T23:00:49.878Z,17.75
2022-10-22T23:03:17.283Z,18.48
2022-10-22T23:05:45.048Z,12.27
2022-10-22T23:08:12.345Z,18.38
2022-10-22T23:10:45.407Z,14.02
2022-10-22T23:13:12.995Z,18.17
2022-10-22T23:15:45.948Z,17.92
2022-10-22T23:18:16.762Z,19.23
2022-10-22T23:20:43.832Z,17.45
2022-10-22T23:23:11.194Z,15.30
2022-10-22T23:25:39.765Z,18.55
2022-10-22T23:28:09.774Z,37.42
2022-10-22T23:30:43.274Z,30.63
2022-10-22T23:33:12.861Z,221.07
2022-10-22T23:35:43.922Z,46.55
2022-10-22T23:38:18.410Z,23.80
2022-10-22T23:40:56.616Z,16.17
2022-10-22T23:43:27.617Z,20.80
2022-10-22T23:45:57.859Z,18.70
2022-10-22T23:48:25.868Z,14.07
2022-10-22T23:53:25.924Z,15.30
2022-10-22T23:56:03.623Z,17.80
2022-10-22T23:58:31.236Z,18.13
